sensor_id;sensor_type;location;lat;lon;timestamp;temperature;humidity
17415;DHT22;8825;48.086;16.426;2022-12-05T00:05:41;6.60;85.20
17415;DHT22;8825;48.086;16.426;2022-12-05T00:08:09;6.60;85.30
17415;DHT22;8825;48.086;16.426;2022-12-05T00:10:37;6.60;85.50
17415;DHT22;8825;48.086;16.426;2022-12-05T00:16:29;6.70;85.40
17415;DHT22;8825;48.086;16.426;2022-12-05T00:19:01;6.70;85.30
17415;DHT22;8825;48.086;16.426;2022-12-05T00:24:52;6.70;85.30
17415;DHT22;8825;48.086;16.426;2022-12-05T00:30:42;6.70;85.50
17415;DHT22;8825;48.086;16.426;2022-12-05T00:33:09;6.60;85.40
17415;DHT22;8825;48.086;16.426;2022-12-05T00:35:37;6.70;85.40
17415;DHT22;8825;48.086;16.426;2022-12-05T00:38:05;6.70;85.40
17415;DHT22;8825;48.086;16.426;2022-12-05T00:40:35;6.80;85.40
17415;DHT22;8825;48.086;16.426;2022-12-05T00:46:26;6.80;85.20
17415;DHT22;8825;48.086;16.426;2022-12-05T00:48:56;6.80;85.10
17415;DHT22;8825;48.086;16.426;2022-12-05T00:51:30;6.80;85.10
17415;DHT22;8825;48.086;16.426;2022-12-05T00:53:59;6.80;85.10
17415;DHT22;8825;48.086;16.426;2022-12-05T00:59:49;6.80;85.10
17415;DHT22;8825;48.086;16.426;2022-12-05T01:05:39;6.80;84.90
17415;DHT22;8825;48.086;16.426;2022-12-05T01:11:30;6.90;84.80
17415;DHT22;8825;48.086;16.426;2022-12-05T01:13:58;6.90;84.70
17415;DHT22;8825;48.086;16.426;2022-12-05T01:16:33;6.90;84.70
17415;DHT22;8825;48.086;16.426;2022-12-05T01:18:58;6.90;84.50
17415;DHT22;8825;48.086;16.426;2022-12-05T01:21:25;7.00;84.20
17415;DHT22;8825;48.086;16.426;2022-12-05T01:23:53;7.00;84.00
17415;DHT22;8825;48.086;16.426;2022-12-05T01:26:22;7.00;83.80
17415;DHT22;8825;48.086;16.426;2022-12-05T01:28:51;7.00;83.60
17415;DHT22;8825;48.086;16.426;2022-12-05T01:31:27;7.10;83.60
17415;DHT22;8825;48.086;16.426;2022-12-05T01:33:57;7.10;83.40
17415;DHT22;8825;48.086;16.426;2022-12-05T01:36:26;7.10;83.20
17415;DHT22;8825;48.086;16.426;2022-12-05T01:38:54;7.10;82.90
17415;DHT22;8825;48.086;16.426;2022-12-05T01:41:28;7.20;82.90
17415;DHT22;8825;48.086;16.426;2022-12-05T01:43:59;7.10;82.70
17415;DHT22;8825;48.086;16.426;2022-12-05T01:46:32;7.10;82.60
17415;DHT22;8825;48.086;16.426;2022-12-05T01:49:15;7.20;82.50
17415;DHT22;8825;48.086;16.426;2022-12-05T01:51:49;7.20;82.30
17415;DHT22;8825;48.086;16.426;2022-12-05T01:54:18;7.10;82.00
17415;DHT22;8825;48.086;16.426;2022-12-05T01:56:52;7.10;82.00
17415;DHT22;8825;48.086;16.426;2022-12-05T01:59:41;7.10;81.70
17415;DHT22;8825;48.086;16.426;2022-12-05T02:05:33;7.00;81.40
17415;DHT22;8825;48.086;16.426;2022-12-05T02:11:25;7.00;81.30
17415;DHT22;8825;48.086;16.426;2022-12-05T02:17:12;6.80;81.40
17415;DHT22;8825;48.086;16.426;2022-12-05T02:20:05;6.90;81.50
17415;DHT22;8825;48.086;16.426;2022-12-05T02:26:20;6.70;81.50
17415;DHT22;8825;48.086;16.426;2022-12-05T02:32:40;6.70;81.50
17415;DHT22;8825;48.086;16.426;2022-12-05T02:34:59;6.70;81.50
17415;DHT22;8825;48.086;16.426;2022-12-05T02:41:01;6.70;82.20
17415;DHT22;8825;48.086;16.426;2022-12-05T02:46:51;6.70;81.20
17415;DHT22;8825;48.086;16.426;2022-12-05T02:49:23;6.70;81.00
17415;DHT22;8825;48.086;16.426;2022-12-05T02:51:56;6.70;81.00
17415;DHT22;8825;48.086;16.426;2022-12-05T02:54:26;6.70;80.90
17415;DHT22;8825;48.086;16.426;2022-12-05T02:56:57;6.70;80.90
17415;DHT22;8825;48.086;16.426;2022-12-05T02:59:25;6.70;80.90
17415;DHT22;8825;48.086;16.426;2022-12-05T03:01:53;6.70;81.00
17415;DHT22;8825;48.086;16.426;2022-12-05T03:07:45;6.70;80.60
17415;DHT22;8825;48.086;16.426;2022-12-05T03:10:15;6.70;80.60
17415;DHT22;8825;48.086;16.426;2022-12-05T03:16:30;6.70;80.50
17415;DHT22;8825;48.086;16.426;2022-12-05T03:22:02;6.60;80.40
17415;DHT22;8825;48.086;16.426;2022-12-05T03:27:57;6.60;80.40
17415;DHT22;8825;48.086;16.426;2022-12-05T03:30:23;6.60;80.40
17415;DHT22;8825;48.086;16.426;2022-12-05T03:36:16;6.60;80.50
17415;DHT22;8825;48.086;16.426;2022-12-05T03:42:13;6.60;80.40
17415;DHT22;8825;48.086;16.426;2022-12-05T03:48:18;6.50;80.40
17415;DHT22;8825;48.086;16.426;2022-12-05T03:50:46;6.60;80.50
17415;DHT22;8825;48.086;16.426;2022-12-05T03:57:11;6.60;80.50
17415;DHT22;8825;48.086;16.426;2022-12-05T04:03:13;6.60;80.50
17415;DHT22;8825;48.086;16.426;2022-12-05T04:05:46;6.60;80.40
17415;DHT22;8825;48.086;16.426;2022-12-05T04:11:39;6.60;80.50
17415;DHT22;8825;48.086;16.426;2022-12-05T04:17:44;6.70;80.00
17415;DHT22;8825;48.086;16.426;2022-12-05T04:23:31;6.70;80.50
17415;DHT22;8825;48.086;16.426;2022-12-05T04:26:16;6.70;80.50
17415;DHT22;8825;48.086;16.426;2022-12-05T04:32:05;6.70;80.50
17415;DHT22;8825;48.086;16.426;2022-12-05T04:37:59;6.80;80.60
17415;DHT22;8825;48.086;16.426;2022-12-05T04:43:50;6.80;80.60
17415;DHT22;8825;48.086;16.426;2022-12-05T04:46:20;6.80;80.40
17415;DHT22;8825;48.086;16.426;2022-12-05T04:52:12;6.80;80.30
17415;DHT22;8825;48.086;16.426;2022-12-05T04:58:05;6.80;80.40
17415;DHT22;8825;48.086;16.426;2022-12-05T05:06:28;6.80;80.10
17415;DHT22;8825;48.086;16.426;2022-12-05T05:12:18;6.90;80.20
17415;DHT22;8825;48.086;16.426;2022-12-05T05:18:09;6.90;80.20
17415;DHT22;8825;48.086;16.426;2022-12-05T05:24:00;6.90;80.20
17415;DHT22;8825;48.086;16.426;2022-12-05T05:26:29;6.80;80.10
17415;DHT22;8825;48.086;16.426;2022-12-05T05:28:57;6.80;80.00
17415;DHT22;8825;48.086;16.426;2022-12-05T05:31:26;6.90;80.10
17415;DHT22;8825;48.086;16.426;2022-12-05T05:33:55;6.90;80.10
17415;DHT22;8825;48.086;16.426;2022-12-05T05:36:24;6.90;80.00
17415;DHT22;8825;48.086;16.426;2022-12-05T05:38:55;6.90;80.10
17415;DHT22;8825;48.086;16.426;2022-12-05T05:41:26;6.90;79.90
17415;DHT22;8825;48.086;16.426;2022-12-05T05:43:54;7.00;79.90
17415;DHT22;8825;48.086;16.426;2022-12-05T05:49:44;7.00;79.80
17415;DHT22;8825;48.086;16.426;2022-12-05T05:52:12;7.10;79.90
17415;DHT22;8825;48.086;16.426;2022-12-05T05:58:05;7.20;79.70
17415;DHT22;8825;48.086;16.426;2022-12-05T06:03:56;7.20;79.60
17415;DHT22;8825;48.086;16.426;2022-12-05T06:06:24;7.20;79.50
17415;DHT22;8825;48.086;16.426;2022-12-05T06:08:52;7.20;79.50
17415;DHT22;8825;48.086;16.426;2022-12-05T06:11:23;7.30;79.50
17415;DHT22;8825;48.086;16.426;2022-12-05T06:13:51;7.30;79.40
17415;DHT22;8825;48.086;16.426;2022-12-05T06:16:19;7.30;79.40
17415;DHT22;8825;48.086;16.426;2022-12-05T06:18:47;7.30;79.30
17415;DHT22;8825;48.086;16.426;2022-12-05T06:24:37;7.30;79.00
17415;DHT22;8825;48.086;16.426;2022-12-05T06:30:27;7.30;78.90
17415;DHT22;8825;48.086;16.426;2022-12-05T06:32:55;7.30;79.00
17415;DHT22;8825;48.086;16.426;2022-12-05T06:38:46;7.30;79.00
17415;DHT22;8825;48.086;16.426;2022-12-05T06:44:35;7.30;79.00
17415;DHT22;8825;48.086;16.426;2022-12-05T06:50:25;7.30;79.00
17415;DHT22;8825;48.086;16.426;2022-12-05T06:52:53;7.30;79.00
17415;DHT22;8825;48.086;16.426;2022-12-05T06:58:45;7.20;79.20
17415;DHT22;8825;48.086;16.426;2022-12-05T07:04:36;7.30;79.20
17415;DHT22;8825;48.086;16.426;2022-12-05T07:07:04;7.30;79.20
17415;DHT22;8825;48.086;16.426;2022-12-05T07:09:32;7.30;79.20
17415;DHT22;8825;48.086;16.426;2022-12-05T07:12:18;7.30;79.20
17415;DHT22;8825;48.086;16.426;2022-12-05T07:14:46;7.40;80.00
17415;DHT22;8825;48.086;16.426;2022-12-05T07:17:14;7.30;79.30
17415;DHT22;8825;48.086;16.426;2022-12-05T07:23:03;7.40;79.30
17415;DHT22;8825;48.086;16.426;2022-12-05T07:28:55;7.40;80.30
17415;DHT22;8825;48.086;16.426;2022-12-05T07:34:45;7.40;79.60
17415;DHT22;8825;48.086;16.426;2022-12-05T07:40:37;7.40;79.60
17415;DHT22;8825;48.086;16.426;2022-12-05T07:43:05;7.40;79.70
17415;DHT22;8825;48.086;16.426;2022-12-05T07:48:55;7.40;80.60
17415;DHT22;8825;48.086;16.426;2022-12-05T07:54:45;7.40;80.10
17415;DHT22;8825;48.086;16.426;2022-12-05T08:00:34;7.40;80.20
17415;DHT22;8825;48.086;16.426;2022-12-05T08:03:02;7.40;80.10
17415;DHT22;8825;48.086;16.426;2022-12-05T08:05:32;7.40;80.20
17415;DHT22;8825;48.086;16.426;2022-12-05T08:08:18;7.40;80.30
17415;DHT22;8825;48.086;16.426;2022-12-05T08:14:08;7.40;80.50
17415;DHT22;8825;48.086;16.426;2022-12-05T08:19:58;7.30;80.70
17415;DHT22;8825;48.086;16.426;2022-12-05T08:25:48;7.30;80.80
17415;DHT22;8825;48.086;16.426;2022-12-05T08:28:16;7.40;80.80
17415;DHT22;8825;48.086;16.426;2022-12-05T08:30:44;7.40;80.80
17415;DHT22;8825;48.086;16.426;2022-12-05T08:33:11;7.40;80.70
17415;DHT22;8825;48.086;16.426;2022-12-05T08:39:04;7.40;80.70
17415;DHT22;8825;48.086;16.426;2022-12-05T08:44:54;7.50;80.80
17415;DHT22;8825;48.086;16.426;2022-12-05T08:50:44;7.50;80.70
17415;DHT22;8825;48.086;16.426;2022-12-05T08:59:59;7.40;81.00
17415;DHT22;8825;48.086;16.426;2022-12-05T09:05:49;7.40;81.30
17415;DHT22;8825;48.086;16.426;2022-12-05T09:08:17;7.30;81.30
17415;DHT22;8825;48.086;16.426;2022-12-05T09:10:45;7.30;81.50
17415;DHT22;8825;48.086;16.426;2022-12-05T09:16:36;7.30;81.90
17415;DHT22;8825;48.086;16.426;2022-12-05T09:19:10;7.30;81.70
17415;DHT22;8825;48.086;16.426;2022-12-05T09:21:34;7.30;81.70
17415;DHT22;8825;48.086;16.426;2022-12-05T09:24:02;7.40;81.80
17415;DHT22;8825;48.086;16.426;2022-12-05T09:26:30;7.40;81.80
17415;DHT22;8825;48.086;16.426;2022-12-05T09:28:58;7.40;81.80
17415;DHT22;8825;48.086;16.426;2022-12-05T09:31:26;7.40;81.90
17415;DHT22;8825;48.086;16.426;2022-12-05T09:33:55;7.40;81.80
17415;DHT22;8825;48.086;16.426;2022-12-05T09:36:25;7.40;81.70
17415;DHT22;8825;48.086;16.426;2022-12-05T09:38:55;7.40;81.70
17415;DHT22;8825;48.086;16.426;2022-12-05T09:51:00;7.50;81.60
17415;DHT22;8825;48.086;16.426;2022-12-05T09:56:51;7.20;82.10
17415;DHT22;8825;48.086;16.426;2022-12-05T10:02:45;7.30;82.10
17415;DHT22;8825;48.086;16.426;2022-12-05T10:05:39;7.30;82.10
17415;DHT22;8825;48.086;16.426;2022-12-05T10:11:21;7.40;82.20
17415;DHT22;8825;48.086;16.426;2022-12-05T10:17:40;7.30;82.30
17415;DHT22;8825;48.086;16.426;2022-12-05T10:19:55;7.30;82.30
17415;DHT22;8825;48.086;16.426;2022-12-05T10:25:45;7.40;82.20
17415;DHT22;8825;48.086;16.426;2022-12-05T10:31:37;7.40;82.30
17415;DHT22;8825;48.086;16.426;2022-12-05T10:34:27;7.40;82.20
17415;DHT22;8825;48.086;16.426;2022-12-05T10:39:31;7.50;82.10
17415;DHT22;8825;48.086;16.426;2022-12-05T10:45:22;7.60;82.00
17415;DHT22;8825;48.086;16.426;2022-12-05T10:51:17;7.50;81.90
17415;DHT22;8825;48.086;16.426;2022-12-05T10:57:25;7.60;82.20
17415;DHT22;8825;48.086;16.426;2022-12-05T10:59:53;7.60;82.10
17415;DHT22;8825;48.086;16.426;2022-12-05T11:05:44;7.70;81.90
17415;DHT22;8825;48.086;16.426;2022-12-05T11:11:39;7.70;81.50
17415;DHT22;8825;48.086;16.426;2022-12-05T11:17:35;7.60;81.50
17415;DHT22;8825;48.086;16.426;2022-12-05T11:25:47;7.30;82.70
17415;DHT22;8825;48.086;16.426;2022-12-05T11:31:36;7.30;82.90
17415;DHT22;8825;48.086;16.426;2022-12-05T11:37:29;7.30;83.00
17415;DHT22;8825;48.086;16.426;2022-12-05T11:49:43;7.10;83.50
17415;DHT22;8825;48.086;16.426;2022-12-05T11:52:25;7.20;83.70
17415;DHT22;8825;48.086;16.426;2022-12-05T12:03:23;7.30;83.40
17415;DHT22;8825;48.086;16.426;2022-12-05T12:14:19;7.30;83.20
17415;DHT22;8825;48.086;16.426;2022-12-05T12:17:20;7.40;83.30
17415;DHT22;8825;48.086;16.426;2022-12-05T12:29:18;7.50;82.80
17415;DHT22;8825;48.086;16.426;2022-12-05T12:36:52;7.60;82.80
17415;DHT22;8825;48.086;16.426;2022-12-05T12:42:21;7.70;82.60
17415;DHT22;8825;48.086;16.426;2022-12-05T12:45:05;7.70;82.50
17415;DHT22;8825;48.086;16.426;2022-12-05T12:50:25;7.80;82.30
17415;DHT22;8825;48.086;16.426;2022-12-05T12:53:16;7.80;82.20
17415;DHT22;8825;48.086;16.426;2022-12-05T13:01:47;7.90;82.70
17415;DHT22;8825;48.086;16.426;2022-12-05T13:04:21;8.00;81.90
17415;DHT22;8825;48.086;16.426;2022-12-05T13:09:42;8.00;81.70
17415;DHT22;8825;48.086;16.426;2022-12-05T13:12:13;8.00;81.50
17415;DHT22;8825;48.086;16.426;2022-12-05T13:14:46;7.90;81.40
17415;DHT22;8825;48.086;16.426;2022-12-05T13:17:14;8.00;81.60
17415;DHT22;8825;48.086;16.426;2022-12-05T13:19:48;8.10;81.60
17415;DHT22;8825;48.086;16.426;2022-12-05T13:22:21;8.10;81.40
17415;DHT22;8825;48.086;16.426;2022-12-05T13:24:53;8.10;81.20
17415;DHT22;8825;48.086;16.426;2022-12-05T13:27:27;8.10;81.20
17415;DHT22;8825;48.086;16.426;2022-12-05T13:29:58;8.10;81.00
17415;DHT22;8825;48.086;16.426;2022-12-05T13:37:43;7.90;80.80
17415;DHT22;8825;48.086;16.426;2022-12-05T13:40:28;7.90;81.00
17415;DHT22;8825;48.086;16.426;2022-12-05T13:43:24;7.90;81.10
17415;DHT22;8825;48.086;16.426;2022-12-05T13:48:30;7.90;81.30
17415;DHT22;8825;48.086;16.426;2022-12-05T13:51:02;7.90;81.40
17415;DHT22;8825;48.086;16.426;2022-12-05T13:53:34;8.00;81.40
17415;DHT22;8825;48.086;16.426;2022-12-05T13:56:05;8.00;81.20
17415;DHT22;8825;48.086;16.426;2022-12-05T14:04:02;8.00;81.00
17415;DHT22;8825;48.086;16.426;2022-12-05T14:09:28;8.00;81.10
17415;DHT22;8825;48.086;16.426;2022-12-05T14:14:59;8.00;81.30
17415;DHT22;8825;48.086;16.426;2022-12-05T14:17:29;7.90;81.30
17415;DHT22;8825;48.086;16.426;2022-12-05T14:28:48;7.80;81.90
17415;DHT22;8825;48.086;16.426;2022-12-05T14:34:21;7.80;82.30
17415;DHT22;8825;48.086;16.426;2022-12-05T14:37:02;7.80;82.40
17415;DHT22;8825;48.086;16.426;2022-12-05T14:42:24;7.90;82.40
17415;DHT22;8825;48.086;16.426;2022-12-05T14:44:54;7.90;82.30
17415;DHT22;8825;48.086;16.426;2022-12-05T14:47:25;7.90;82.10
17415;DHT22;8825;48.086;16.426;2022-12-05T14:52:43;8.00;82.20
17415;DHT22;8825;48.086;16.426;2022-12-05T14:55:14;8.00;82.10
17415;DHT22;8825;48.086;16.426;2022-12-05T14:57:45;8.10;82.10
17415;DHT22;8825;48.086;16.426;2022-12-05T15:00:21;8.10;82.10
17415;DHT22;8825;48.086;16.426;2022-12-05T15:02:51;8.10;81.90
17415;DHT22;8825;48.086;16.426;2022-12-05T15:05:26;8.10;81.90
17415;DHT22;8825;48.086;16.426;2022-12-05T15:07:54;8.20;81.90
17415;DHT22;8825;48.086;16.426;2022-12-05T15:10:40;8.20;82.00
17415;DHT22;8825;48.086;16.426;2022-12-05T15:13:16;8.20;81.80
17415;DHT22;8825;48.086;16.426;2022-12-05T15:16:00;8.30;81.80
17415;DHT22;8825;48.086;16.426;2022-12-05T15:18:33;8.30;81.90
17415;DHT22;8825;48.086;16.426;2022-12-05T15:21:06;8.30;81.90
17415;DHT22;8825;48.086;16.426;2022-12-05T15:23:46;8.30;81.80
17415;DHT22;8825;48.086;16.426;2022-12-05T15:26:37;8.30;81.80
17415;DHT22;8825;48.086;16.426;2022-12-05T15:31:53;8.30;81.70
17415;DHT22;8825;48.086;16.426;2022-12-05T15:39:59;8.30;81.70
17415;DHT22;8825;48.086;16.426;2022-12-05T15:42:36;8.30;81.70
17415;DHT22;8825;48.086;16.426;2022-12-05T15:45:18;8.40;81.60
17415;DHT22;8825;48.086;16.426;2022-12-05T15:47:53;8.40;81.60
17415;DHT22;8825;48.086;16.426;2022-12-05T16:01:17;8.30;81.00
17415;DHT22;8825;48.086;16.426;2022-12-05T16:09:07;8.20;80.80
17415;DHT22;8825;48.086;16.426;2022-12-05T16:11:35;8.10;80.70
17415;DHT22;8825;48.086;16.426;2022-12-05T16:14:04;8.10;80.70
17415;DHT22;8825;48.086;16.426;2022-12-05T16:16:35;8.10;80.70
17415;DHT22;8825;48.086;16.426;2022-12-05T16:19:10;8.10;80.60
17415;DHT22;8825;48.086;16.426;2022-12-05T16:21:38;8.10;80.60
17415;DHT22;8825;48.086;16.426;2022-12-05T16:24:27;8.10;80.60
17415;DHT22;8825;48.086;16.426;2022-12-05T16:27:03;8.10;80.50
17415;DHT22;8825;48.086;16.426;2022-12-05T16:29:34;8.00;80.30
17415;DHT22;8825;48.086;16.426;2022-12-05T16:32:03;8.00;80.30
17415;DHT22;8825;48.086;16.426;2022-12-05T16:34:32;8.00;80.30
17415;DHT22;8825;48.086;16.426;2022-12-05T16:37:00;8.00;80.30
17415;DHT22;8825;48.086;16.426;2022-12-05T16:39:28;8.00;80.30
17415;DHT22;8825;48.086;16.426;2022-12-05T16:41:56;8.00;80.30
17415;DHT22;8825;48.086;16.426;2022-12-05T16:47:24;7.90;80.20
17415;DHT22;8825;48.086;16.426;2022-12-05T16:49:52;7.90;80.10
17415;DHT22;8825;48.086;16.426;2022-12-05T16:52:20;7.80;80.20
17415;DHT22;8825;48.086;16.426;2022-12-05T16:54:48;7.80;80.30
17415;DHT22;8825;48.086;16.426;2022-12-05T16:57:17;7.80;80.30
17415;DHT22;8825;48.086;16.426;2022-12-05T16:59:45;7.80;80.30
17415;DHT22;8825;48.086;16.426;2022-12-05T17:02:16;7.80;80.40
17415;DHT22;8825;48.086;16.426;2022-12-05T17:04:44;7.90;80.30
17415;DHT22;8825;48.086;16.426;2022-12-05T17:07:12;7.90;80.40
17415;DHT22;8825;48.086;16.426;2022-12-05T17:09:39;7.90;80.30
17415;DHT22;8825;48.086;16.426;2022-12-05T17:12:13;7.90;80.20
17415;DHT22;8825;48.086;16.426;2022-12-05T17:14:40;7.90;80.20
17415;DHT22;8825;48.086;16.426;2022-12-05T17:17:12;7.90;80.10
17415;DHT22;8825;48.086;16.426;2022-12-05T17:19:42;8.00;80.20
17415;DHT22;8825;48.086;16.426;2022-12-05T17:22:11;7.90;80.00
17415;DHT22;8825;48.086;16.426;2022-12-05T17:24:39;7.90;80.10
17415;DHT22;8825;48.086;16.426;2022-12-05T17:27:11;7.90;80.00
17415;DHT22;8825;48.086;16.426;2022-12-05T17:29:39;7.90;80.00
17415;DHT22;8825;48.086;16.426;2022-12-05T17:32:08;8.00;80.10
17415;DHT22;8825;48.086;16.426;2022-12-05T17:34:35;7.90;80.00
17415;DHT22;8825;48.086;16.426;2022-12-05T17:37:03;8.00;80.00
17415;DHT22;8825;48.086;16.426;2022-12-05T17:39:30;8.00;80.10
17415;DHT22;8825;48.086;16.426;2022-12-05T17:41:58;8.00;80.00
17415;DHT22;8825;48.086;16.426;2022-12-05T17:44:25;8.00;79.90
17415;DHT22;8825;48.086;16.426;2022-12-05T17:46:53;8.00;79.90
17415;DHT22;8825;48.086;16.426;2022-12-05T17:49:20;8.00;79.80
17415;DHT22;8825;48.086;16.426;2022-12-05T17:51:48;8.00;79.70
17415;DHT22;8825;48.086;16.426;2022-12-05T17:54:17;8.00;79.80
17415;DHT22;8825;48.086;16.426;2022-12-05T17:56:45;8.00;79.80
17415;DHT22;8825;48.086;16.426;2022-12-05T17:59:12;8.00;79.70
17415;DHT22;8825;48.086;16.426;2022-12-05T18:01:40;8.00;79.70
17415;DHT22;8825;48.086;16.426;2022-12-05T18:04:07;8.00;79.60
17415;DHT22;8825;48.086;16.426;2022-12-05T18:06:35;8.00;79.60
17415;DHT22;8825;48.086;16.426;2022-12-05T18:09:04;8.00;79.60
17415;DHT22;8825;48.086;16.426;2022-12-05T18:11:32;8.00;79.60
17415;DHT22;8825;48.086;16.426;2022-12-05T18:13:59;8.00;79.70
17415;DHT22;8825;48.086;16.426;2022-12-05T18:16:27;8.10;79.80
17415;DHT22;8825;48.086;16.426;2022-12-05T18:18:54;8.00;79.70
17415;DHT22;8825;48.086;16.426;2022-12-05T18:21:22;8.00;79.80
17415;DHT22;8825;48.086;16.426;2022-12-05T18:23:50;8.00;79.60
17415;DHT22;8825;48.086;16.426;2022-12-05T18:26:18;8.10;79.60
17415;DHT22;8825;48.086;16.426;2022-12-05T18:28:46;8.10;79.60
17415;DHT22;8825;48.086;16.426;2022-12-05T18:31:15;8.10;79.60
17415;DHT22;8825;48.086;16.426;2022-12-05T18:33:44;8.10;79.70
17415;DHT22;8825;48.086;16.426;2022-12-05T18:36:14;8.10;79.70
17415;DHT22;8825;48.086;16.426;2022-12-05T18:39:04;8.10;79.60
17415;DHT22;8825;48.086;16.426;2022-12-05T18:41:12;8.10;79.70
17415;DHT22;8825;48.086;16.426;2022-12-05T18:43:39;8.10;79.70
17415;DHT22;8825;48.086;16.426;2022-12-05T18:46:07;8.10;79.70
17415;DHT22;8825;48.086;16.426;2022-12-05T18:48:35;8.10;79.80
17415;DHT22;8825;48.086;16.426;2022-12-05T18:51:11;8.10;79.70
17415;DHT22;8825;48.086;16.426;2022-12-05T18:53:39;8.10;79.70
17415;DHT22;8825;48.086;16.426;2022-12-05T18:56:10;8.10;79.70
17415;DHT22;8825;48.086;16.426;2022-12-05T18:58:37;8.10;79.60
17415;DHT22;8825;48.086;16.426;2022-12-05T19:01:10;8.10;79.70
17415;DHT22;8825;48.086;16.426;2022-12-05T19:03:38;8.10;79.70
17415;DHT22;8825;48.086;16.426;2022-12-05T19:06:14;8.00;79.60
17415;DHT22;8825;48.086;16.426;2022-12-05T19:08:43;8.10;79.60
17415;DHT22;8825;48.086;16.426;2022-12-05T19:11:12;8.00;79.60
17415;DHT22;8825;48.086;16.426;2022-12-05T19:13:40;8.00;79.60
17415;DHT22;8825;48.086;16.426;2022-12-05T19:16:10;8.00;79.60
17415;DHT22;8825;48.086;16.426;2022-12-05T19:18:40;8.10;80.40
17415;DHT22;8825;48.086;16.426;2022-12-05T19:21:08;8.10;79.60
17415;DHT22;8825;48.086;16.426;2022-12-05T19:23:36;8.10;79.60
17415;DHT22;8825;48.086;16.426;2022-12-05T19:26:05;8.10;79.60
17415;DHT22;8825;48.086;16.426;2022-12-05T19:28:35;8.10;79.70
17415;DHT22;8825;48.086;16.426;2022-12-05T19:31:08;8.10;79.60
17415;DHT22;8825;48.086;16.426;2022-12-05T19:33:39;8.10;79.60
17415;DHT22;8825;48.086;16.426;2022-12-05T19:36:12;8.10;79.50
17415;DHT22;8825;48.086;16.426;2022-12-05T19:38:41;8.10;79.50
17415;DHT22;8825;48.086;16.426;2022-12-05T19:41:13;8.10;79.50
17415;DHT22;8825;48.086;16.426;2022-12-05T19:43:41;8.10;79.40
17415;DHT22;8825;48.086;16.426;2022-12-05T19:46:12;8.10;79.50
17415;DHT22;8825;48.086;16.426;2022-12-05T19:48:41;8.10;79.80
17415;DHT22;8825;48.086;16.426;2022-12-05T19:51:09;8.10;79.60
17415;DHT22;8825;48.086;16.426;2022-12-05T19:53:39;8.10;79.50
17415;DHT22;8825;48.086;16.426;2022-12-05T19:56:12;8.10;79.50
17415;DHT22;8825;48.086;16.426;2022-12-05T19:58:40;8.10;79.40
17415;DHT22;8825;48.086;16.426;2022-12-05T20:01:25;8.10;79.30
17415;DHT22;8825;48.086;16.426;2022-12-05T20:03:56;8.10;79.30
17415;DHT22;8825;48.086;16.426;2022-12-05T20:06:24;8.10;79.30
17415;DHT22;8825;48.086;16.426;2022-12-05T20:08:52;8.10;79.30
17415;DHT22;8825;48.086;16.426;2022-12-05T20:11:24;8.10;79.30
17415;DHT22;8825;48.086;16.426;2022-12-05T20:13:54;8.10;79.40
17415;DHT22;8825;48.086;16.426;2022-12-05T20:16:24;8.10;79.30
17415;DHT22;8825;48.086;16.426;2022-12-05T20:18:56;8.10;79.30
17415;DHT22;8825;48.086;16.426;2022-12-05T20:21:27;8.10;79.30
17415;DHT22;8825;48.086;16.426;2022-12-05T20:23:54;8.10;79.10
17415;DHT22;8825;48.086;16.426;2022-12-05T20:26:25;8.00;79.90
17415;DHT22;8825;48.086;16.426;2022-12-05T20:28:58;8.10;79.10
17415;DHT22;8825;48.086;16.426;2022-12-05T20:31:28;8.00;79.10
17415;DHT22;8825;48.086;16.426;2022-12-05T20:33:56;8.00;79.10
17415;DHT22;8825;48.086;16.426;2022-12-05T20:36:26;8.00;79.20
17415;DHT22;8825;48.086;16.426;2022-12-05T20:39:05;8.00;79.20
17415;DHT22;8825;48.086;16.426;2022-12-05T20:41:33;8.00;79.20
17415;DHT22;8825;48.086;16.426;2022-12-05T20:44:04;8.00;79.20
17415;DHT22;8825;48.086;16.426;2022-12-05T20:46:32;8.00;79.30
17415;DHT22;8825;48.086;16.426;2022-12-05T20:49:00;8.00;79.40
17415;DHT22;8825;48.086;16.426;2022-12-05T20:51:32;8.00;79.40
17415;DHT22;8825;48.086;16.426;2022-12-05T20:54:00;8.00;79.50
17415;DHT22;8825;48.086;16.426;2022-12-05T20:56:34;8.00;79.40
17415;DHT22;8825;48.086;16.426;2022-12-05T20:59:03;8.00;79.50
17415;DHT22;8825;48.086;16.426;2022-12-05T21:01:33;8.00;79.60
17415;DHT22;8825;48.086;16.426;2022-12-05T21:04:03;8.00;79.60
17415;DHT22;8825;48.086;16.426;2022-12-05T21:06:34;8.00;79.70
17415;DHT22;8825;48.086;16.426;2022-12-05T21:09:04;8.00;79.60
17415;DHT22;8825;48.086;16.426;2022-12-05T21:11:32;8.00;79.50
17415;DHT22;8825;48.086;16.426;2022-12-05T21:13:59;8.00;79.50
17415;DHT22;8825;48.086;16.426;2022-12-05T21:16:28;8.00;79.40
17415;DHT22;8825;48.086;16.426;2022-12-05T21:18:58;8.00;79.40
17415;DHT22;8825;48.086;16.426;2022-12-05T21:21:27;8.00;79.40
17415;DHT22;8825;48.086;16.426;2022-12-05T21:23:57;8.00;79.50
17415;DHT22;8825;48.086;16.426;2022-12-05T21:26:27;8.00;79.40
17415;DHT22;8825;48.086;16.426;2022-12-05T21:28:55;8.00;79.40
17415;DHT22;8825;48.086;16.426;2022-12-05T21:31:29;8.00;79.50
17415;DHT22;8825;48.086;16.426;2022-12-05T21:34:00;8.00;79.50
17415;DHT22;8825;48.086;16.426;2022-12-05T21:36:30;8.00;79.40
17415;DHT22;8825;48.086;16.426;2022-12-05T21:38:58;8.00;79.30
17415;DHT22;8825;48.086;16.426;2022-12-05T21:41:26;8.00;79.30
17415;DHT22;8825;48.086;16.426;2022-12-05T21:43:53;8.00;79.40
17415;DHT22;8825;48.086;16.426;2022-12-05T21:46:26;8.00;79.40
17415;DHT22;8825;48.086;16.426;2022-12-05T21:48:50;8.00;79.40
17415;DHT22;8825;48.086;16.426;2022-12-05T21:51:19;7.90;79.40
17415;DHT22;8825;48.086;16.426;2022-12-05T21:53:47;7.90;79.40
17415;DHT22;8825;48.086;16.426;2022-12-05T21:56:16;7.90;79.40
17415;DHT22;8825;48.086;16.426;2022-12-05T21:58:45;7.90;79.40
17415;DHT22;8825;48.086;16.426;2022-12-05T22:01:19;7.90;79.40
17415;DHT22;8825;48.086;16.426;2022-12-05T22:03:49;7.90;79.60
17415;DHT22;8825;48.086;16.426;2022-12-05T22:06:15;7.80;79.70
17415;DHT22;8825;48.086;16.426;2022-12-05T22:08:43;7.80;79.80
17415;DHT22;8825;48.086;16.426;2022-12-05T22:11:15;7.90;79.80
17415;DHT22;8825;48.086;16.426;2022-12-05T22:13:44;7.90;79.80
17415;DHT22;8825;48.086;16.426;2022-12-05T22:16:12;7.80;79.70
17415;DHT22;8825;48.086;16.426;2022-12-05T22:18:40;7.80;79.80
17415;DHT22;8825;48.086;16.426;2022-12-05T22:21:18;7.80;79.80
17415;DHT22;8825;48.086;16.426;2022-12-05T22:23:42;7.80;79.80
17415;DHT22;8825;48.086;16.426;2022-12-05T22:26:11;7.80;79.80
17415;DHT22;8825;48.086;16.426;2022-12-05T22:28:40;7.80;79.90
17415;DHT22;8825;48.086;16.426;2022-12-05T22:31:10;7.80;80.00
17415;DHT22;8825;48.086;16.426;2022-12-05T22:33:38;7.80;80.00
17415;DHT22;8825;48.086;16.426;2022-12-05T22:36:08;7.90;80.00
17415;DHT22;8825;48.086;16.426;2022-12-05T22:38:38;7.90;79.80
17415;DHT22;8825;48.086;16.426;2022-12-05T22:41:09;7.80;79.80
17415;DHT22;8825;48.086;16.426;2022-12-05T22:43:38;7.90;79.90
17415;DHT22;8825;48.086;16.426;2022-12-05T22:46:13;7.80;79.80
17415;DHT22;8825;48.086;16.426;2022-12-05T22:48:37;7.80;79.80